sensor_id;sensor_type;location;lat;lon;timestamp;P1;durP1;ratioP1;P2;durP2;ratioP2
17696;SDS011;8967;47.984;7.842;2022-12-20T00:02:05;2.27;;;1.80;;
17696;SDS011;8967;47.984;7.842;2022-12-20T00:04:33;2.40;;;1.90;;
17696;SDS011;8967;47.984;7.842;2022-12-20T00:07:00;2.57;;;1.90;;
17696;SDS011;8967;47.984;7.842;2022-12-20T00:09:27;2.30;;;1.80;;
17696;SDS011;8967;47.984;7.842;2022-12-20T00:11:54;3.40;;;1.70;;
17696;SDS011;8967;47.984;7.842;2022-12-20T00:14:23;2.15;;;1.95;;
17696;SDS011;8967;47.984;7.842;2022-12-20T00:16:50;1.53;;;1.43;;
17696;SDS011;8967;47.984;7.842;2022-12-20T00:19:17;3.97;;;2.07;;
17696;SDS011;8967;47.984;7.842;2022-12-20T00:21:47;1.30;;;1.20;;
17696;SDS011;8967;47.984;7.842;2022-12-20T00:24:14;1.67;;;1.57;;
17696;SDS011;8967;47.984;7.842;2022-12-20T00:26:41;2.10;;;1.57;;
17696;SDS011;8967;47.984;7.842;2022-12-20T00:29:08;2.07;;;1.53;;
17696;SDS011;8967;47.984;7.842;2022-12-20T00:31:35;2.53;;;1.40;;
17696;SDS011;8967;47.984;7.842;2022-12-20T00:34:02;3.50;;;1.60;;
17696;SDS011;8967;47.984;7.842;2022-12-20T00:36:35;2.07;;;1.67;;
17696;SDS011;8967;47.984;7.842;2022-12-20T00:39:08;3.37;;;1.47;;
17696;SDS011;8967;47.984;7.842;2022-12-20T00:41:35;2.33;;;1.40;;
17696;SDS011;8967;47.984;7.842;2022-12-20T00:44:03;5.20;;;1.37;;
17696;SDS011;8967;47.984;7.842;2022-12-20T00:46:30;1.80;;;1.53;;
17696;SDS011;8967;47.984;7.842;2022-12-20T00:48:58;2.37;;;1.70;;
17696;SDS011;8967;47.984;7.842;2022-12-20T00:51:28;2.57;;;1.80;;
17696;SDS011;8967;47.984;7.842;2022-12-20T00:53:56;3.10;;;1.60;;
17696;SDS011;8967;47.984;7.842;2022-12-20T00:56:25;1.70;;;1.60;;
17696;SDS011;8967;47.984;7.842;2022-12-20T00:58:54;2.23;;;1.50;;
17696;SDS011;8967;47.984;7.842;2022-12-20T01:01:24;1.93;;;1.57;;
17696;SDS011;8967;47.984;7.842;2022-12-20T01:03:52;4.20;;;1.80;;
17696;SDS011;8967;47.984;7.842;2022-12-20T01:06:20;4.00;;;2.07;;
17696;SDS011;8967;47.984;7.842;2022-12-20T01:08:48;3.67;;;1.80;;
17696;SDS011;8967;47.984;7.842;2022-12-20T01:11:16;2.03;;;1.77;;
17696;SDS011;8967;47.984;7.842;2022-12-20T01:13:47;1.93;;;1.70;;
17696;SDS011;8967;47.984;7.842;2022-12-20T01:16:15;3.97;;;1.70;;
17696;SDS011;8967;47.984;7.842;2022-12-20T01:18:45;1.73;;;1.30;;
17696;SDS011;8967;47.984;7.842;2022-12-20T01:21:13;2.30;;;1.70;;
17696;SDS011;8967;47.984;7.842;2022-12-20T01:23:42;1.87;;;1.40;;
17696;SDS011;8967;47.984;7.842;2022-12-20T01:26:10;3.63;;;1.50;;
17696;SDS011;8967;47.984;7.842;2022-12-20T01:28:41;1.73;;;1.57;;
17696;SDS011;8967;47.984;7.842;2022-12-20T01:31:12;1.50;;;1.40;;
17696;SDS011;8967;47.984;7.842;2022-12-20T01:33:42;2.93;;;1.43;;
17696;SDS011;8967;47.984;7.842;2022-12-20T01:36:10;1.47;;;1.20;;
17696;SDS011;8967;47.984;7.842;2022-12-20T01:38:38;3.93;;;1.47;;
17696;SDS011;8967;47.984;7.842;2022-12-20T01:41:05;2.13;;;1.63;;
17696;SDS011;8967;47.984;7.842;2022-12-20T01:43:46;1.80;;;1.50;;
17696;SDS011;8967;47.984;7.842;2022-12-20T01:46:18;2.70;;;1.60;;
17696;SDS011;8967;47.984;7.842;2022-12-20T01:48:48;1.63;;;1.30;;
17696;SDS011;8967;47.984;7.842;2022-12-20T01:51:18;3.17;;;1.80;;
17696;SDS011;8967;47.984;7.842;2022-12-20T01:53:45;5.23;;;2.10;;
17696;SDS011;8967;47.984;7.842;2022-12-20T01:56:14;2.17;;;1.57;;
17696;SDS011;8967;47.984;7.842;2022-12-20T01:58:41;2.83;;;1.67;;
17696;SDS011;8967;47.984;7.842;2022-12-20T02:01:11;2.87;;;1.40;;
17696;SDS011;8967;47.984;7.842;2022-12-20T02:03:39;2.80;;;1.80;;
17696;SDS011;8967;47.984;7.842;2022-12-20T02:06:15;2.97;;;1.77;;
17696;SDS011;8967;47.984;7.842;2022-12-20T02:08:43;2.80;;;1.87;;
17696;SDS011;8967;47.984;7.842;2022-12-20T02:11:20;3.17;;;2.03;;
17696;SDS011;8967;47.984;7.842;2022-12-20T02:14:00;3.23;;;1.70;;
17696;SDS011;8967;47.984;7.842;2022-12-20T02:16:42;1.77;;;1.63;;
17696;SDS011;8967;47.984;7.842;2022-12-20T02:19:23;2.40;;;1.50;;
17696;SDS011;8967;47.984;7.842;2022-12-20T02:22:06;1.70;;;1.40;;
17696;SDS011;8967;47.984;7.842;2022-12-20T02:24:53;2.35;;;1.67;;
17696;SDS011;8967;47.984;7.842;2022-12-20T02:27:45;5.25;;;1.40;;
17696;SDS011;8967;47.984;7.842;2022-12-20T02:30:22;1.45;;;1.30;;
17696;SDS011;8967;47.984;7.842;2022-12-20T02:32:55;2.23;;;1.70;;
17696;SDS011;8967;47.984;7.842;2022-12-20T02:35:25;2.47;;;1.73;;
17696;SDS011;8967;47.984;7.842;2022-12-20T02:37:55;4.43;;;1.73;;
17696;SDS011;8967;47.984;7.842;2022-12-20T02:40:25;2.40;;;1.53;;
17696;SDS011;8967;47.984;7.842;2022-12-20T02:42:56;1.88;;;1.33;;
17696;SDS011;8967;47.984;7.842;2022-12-20T02:45:28;1.90;;;1.50;;
17696;SDS011;8967;47.984;7.842;2022-12-20T02:47:59;2.17;;;1.57;;
17696;SDS011;8967;47.984;7.842;2022-12-20T02:50:33;2.80;;;1.37;;
17696;SDS011;8967;47.984;7.842;2022-12-20T02:53:03;3.75;;;1.30;;
17696;SDS011;8967;47.984;7.842;2022-12-20T02:55:33;1.88;;;1.38;;
17696;SDS011;8967;47.984;7.842;2022-12-20T02:58:08;2.15;;;1.30;;
17696;SDS011;8967;47.984;7.842;2022-12-20T03:00:44;1.63;;;1.40;;
17696;SDS011;8967;47.984;7.842;2022-12-20T03:03:14;1.17;;;1.15;;
17696;SDS011;8967;47.984;7.842;2022-12-20T03:05:47;3.50;;;1.60;;
17696;SDS011;8967;47.984;7.842;2022-12-20T03:08:18;1.52;;;1.42;;
17696;SDS011;8967;47.984;7.842;2022-12-20T03:10:47;1.63;;;1.17;;
17696;SDS011;8967;47.984;7.842;2022-12-20T03:13:14;1.52;;;1.30;;
17696;SDS011;8967;47.984;7.842;2022-12-20T03:15:49;2.00;;;1.33;;
17696;SDS011;8967;47.984;7.842;2022-12-20T03:18:16;1.75;;;1.58;;
17696;SDS011;8967;47.984;7.842;2022-12-20T03:20:43;2.77;;;1.60;;
17696;SDS011;8967;47.984;7.842;2022-12-20T03:23:10;2.78;;;1.38;;
17696;SDS011;8967;47.984;7.842;2022-12-20T03:25:38;1.55;;;1.30;;
17696;SDS011;8967;47.984;7.842;2022-12-20T03:28:07;1.50;;;1.40;;
17696;SDS011;8967;47.984;7.842;2022-12-20T03:30:34;2.33;;;1.40;;
17696;SDS011;8967;47.984;7.842;2022-12-20T03:33:02;2.10;;;1.30;;
17696;SDS011;8967;47.984;7.842;2022-12-20T03:35:29;1.33;;;1.17;;
17696;SDS011;8967;47.984;7.842;2022-12-20T03:37:56;1.27;;;1.07;;
17696;SDS011;8967;47.984;7.842;2022-12-20T03:40:23;1.40;;;1.30;;
17696;SDS011;8967;47.984;7.842;2022-12-20T03:42:50;2.10;;;1.27;;
17696;SDS011;8967;47.984;7.842;2022-12-20T03:45:20;1.50;;;1.40;;
17696;SDS011;8967;47.984;7.842;2022-12-20T03:47:47;1.27;;;1.17;;
17696;SDS011;8967;47.984;7.842;2022-12-20T03:50:16;1.30;;;1.10;;
17696;SDS011;8967;47.984;7.842;2022-12-20T03:52:43;2.35;;;1.05;;
17696;SDS011;8967;47.984;7.842;2022-12-20T03:55:12;1.60;;;1.20;;
17696;SDS011;8967;47.984;7.842;2022-12-20T03:57:43;1.27;;;1.10;;
17696;SDS011;8967;47.984;7.842;2022-12-20T04:00:24;1.55;;;1.30;;
17696;SDS011;8967;47.984;7.842;2022-12-20T04:03:00;1.57;;;1.43;;
17696;SDS011;8967;47.984;7.842;2022-12-20T04:05:29;1.23;;;1.13;;
17696;SDS011;8967;47.984;7.842;2022-12-20T04:07:56;4.75;;;1.90;;
17696;SDS011;8967;47.984;7.842;2022-12-20T04:10:23;4.93;;;1.90;;
17696;SDS011;8967;47.984;7.842;2022-12-20T04:12:50;2.88;;;1.50;;
17696;SDS011;8967;47.984;7.842;2022-12-20T04:15:21;1.60;;;1.48;;
17696;SDS011;8967;47.984;7.842;2022-12-20T04:17:48;2.47;;;1.45;;
17696;SDS011;8967;47.984;7.842;2022-12-20T04:20:15;3.28;;;1.45;;
17696;SDS011;8967;47.984;7.842;2022-12-20T04:22:55;4.35;;;1.40;;
17696;SDS011;8967;47.984;7.842;2022-12-20T04:25:22;1.95;;;1.50;;
17696;SDS011;8967;47.984;7.842;2022-12-20T04:27:53;1.88;;;1.63;;
17696;SDS011;8967;47.984;7.842;2022-12-20T04:30:20;1.38;;;1.23;;
17696;SDS011;8967;47.984;7.842;2022-12-20T04:32:48;2.20;;;1.75;;
17696;SDS011;8967;47.984;7.842;2022-12-20T04:35:19;3.05;;;1.40;;
17696;SDS011;8967;47.984;7.842;2022-12-20T04:37:46;1.50;;;1.40;;
17696;SDS011;8967;47.984;7.842;2022-12-20T04:40:16;4.28;;;1.63;;
17696;SDS011;8967;47.984;7.842;2022-12-20T04:42:46;2.45;;;1.73;;
17696;SDS011;8967;47.984;7.842;2022-12-20T04:45:15;3.20;;;2.13;;
17696;SDS011;8967;47.984;7.842;2022-12-20T04:47:42;2.80;;;1.80;;
17696;SDS011;8967;47.984;7.842;2022-12-20T04:50:14;2.57;;;1.60;;
17696;SDS011;8967;47.984;7.842;2022-12-20T04:52:42;3.90;;;1.70;;
17696;SDS011;8967;47.984;7.842;2022-12-20T04:55:32;3.42;;;1.60;;
17696;SDS011;8967;47.984;7.842;2022-12-20T04:58:03;2.15;;;1.45;;
17696;SDS011;8967;47.984;7.842;2022-12-20T05:00:30;2.72;;;1.42;;
17696;SDS011;8967;47.984;7.842;2022-12-20T05:03:05;3.08;;;2.28;;
17696;SDS011;8967;47.984;7.842;2022-12-20T05:05:32;1.80;;;1.40;;
17696;SDS011;8967;47.984;7.842;2022-12-20T05:08:02;1.65;;;1.27;;
17696;SDS011;8967;47.984;7.842;2022-12-20T05:10:33;3.53;;;1.40;;
17696;SDS011;8967;47.984;7.842;2022-12-20T05:13:01;1.90;;;1.27;;
17696;SDS011;8967;47.984;7.842;2022-12-20T05:15:36;1.13;;;1.10;;
17696;SDS011;8967;47.984;7.842;2022-12-20T05:18:04;2.00;;;1.48;;
17696;SDS011;8967;47.984;7.842;2022-12-20T05:20:47;1.95;;;1.15;;
17696;SDS011;8967;47.984;7.842;2022-12-20T05:23:38;2.53;;;1.30;;
17696;SDS011;8967;47.984;7.842;2022-12-20T05:26:26;3.15;;;1.60;;
17696;SDS011;8967;47.984;7.842;2022-12-20T05:28:55;1.40;;;1.30;;
17696;SDS011;8967;47.984;7.842;2022-12-20T05:31:26;3.10;;;1.63;;
17696;SDS011;8967;47.984;7.842;2022-12-20T05:33:53;3.10;;;1.83;;
17696;SDS011;8967;47.984;7.842;2022-12-20T05:36:24;3.53;;;2.00;;
17696;SDS011;8967;47.984;7.842;2022-12-20T05:38:53;2.43;;;2.00;;
17696;SDS011;8967;47.984;7.842;2022-12-20T05:41:20;4.05;;;2.40;;
17696;SDS011;8967;47.984;7.842;2022-12-20T05:43:51;3.10;;;2.40;;
17696;SDS011;8967;47.984;7.842;2022-12-20T05:46:18;2.80;;;1.95;;
17696;SDS011;8967;47.984;7.842;2022-12-20T05:48:57;3.15;;;1.83;;
17696;SDS011;8967;47.984;7.842;2022-12-20T05:51:24;2.93;;;1.90;;
17696;SDS011;8967;47.984;7.842;2022-12-20T05:53:56;4.28;;;1.92;;
17696;SDS011;8967;47.984;7.842;2022-12-20T05:56:40;3.03;;;2.20;;
17696;SDS011;8967;47.984;7.842;2022-12-20T05:59:08;2.07;;;1.80;;
17696;SDS011;8967;47.984;7.842;2022-12-20T06:01:36;3.77;;;2.40;;
17696;SDS011;8967;47.984;7.842;2022-12-20T06:04:03;3.58;;;2.63;;
17696;SDS011;8967;47.984;7.842;2022-12-20T06:06:31;6.53;;;2.40;;
17696;SDS011;8967;47.984;7.842;2022-12-20T06:08:58;3.60;;;2.65;;
17696;SDS011;8967;47.984;7.842;2022-12-20T06:11:41;3.78;;;2.80;;
17696;SDS011;8967;47.984;7.842;2022-12-20T06:14:13;4.77;;;2.90;;
17696;SDS011;8967;47.984;7.842;2022-12-20T06:16:45;4.00;;;2.47;;
17696;SDS011;8967;47.984;7.842;2022-12-20T06:19:15;3.40;;;2.80;;
17696;SDS011;8967;47.984;7.842;2022-12-20T06:21:43;5.28;;;2.97;;
17696;SDS011;8967;47.984;7.842;2022-12-20T06:24:12;9.13;;;4.68;;
17696;SDS011;8967;47.984;7.842;2022-12-20T06:26:42;6.78;;;4.20;;
17696;SDS011;8967;47.984;7.842;2022-12-20T06:29:11;6.25;;;3.67;;
17696;SDS011;8967;47.984;7.842;2022-12-20T06:31:49;4.57;;;3.22;;
17696;SDS011;8967;47.984;7.842;2022-12-20T06:34:16;5.68;;;3.05;;
17696;SDS011;8967;47.984;7.842;2022-12-20T06:36:44;5.60;;;2.90;;
17696;SDS011;8967;47.984;7.842;2022-12-20T06:39:17;5.22;;;3.22;;
17696;SDS011;8967;47.984;7.842;2022-12-20T06:41:54;5.05;;;2.95;;
17696;SDS011;8967;47.984;7.842;2022-12-20T06:44:23;4.18;;;2.63;;
17696;SDS011;8967;47.984;7.842;2022-12-20T06:46:52;5.77;;;2.67;;
17696;SDS011;8967;47.984;7.842;2022-12-20T06:49:19;4.47;;;2.35;;
17696;SDS011;8967;47.984;7.842;2022-12-20T06:51:47;5.88;;;2.35;;
17696;SDS011;8967;47.984;7.842;2022-12-20T06:54:17;4.03;;;2.00;;
17696;SDS011;8967;47.984;7.842;2022-12-20T06:56:44;3.03;;;2.45;;
17696;SDS011;8967;47.984;7.842;2022-12-20T06:59:11;3.65;;;2.47;;
17696;SDS011;8967;47.984;7.842;2022-12-20T07:01:40;3.60;;;2.35;;
17696;SDS011;8967;47.984;7.842;2022-12-20T07:04:07;5.33;;;2.87;;
17696;SDS011;8967;47.984;7.842;2022-12-20T07:06:34;3.13;;;2.20;;
17696;SDS011;8967;47.984;7.842;2022-12-20T07:09:01;5.97;;;2.42;;
17696;SDS011;8967;47.984;7.842;2022-12-20T07:11:30;4.22;;;2.60;;
17696;SDS011;8967;47.984;7.842;2022-12-20T07:13:57;6.50;;;2.97;;
17696;SDS011;8967;47.984;7.842;2022-12-20T07:16:24;4.93;;;2.78;;
17696;SDS011;8967;47.984;7.842;2022-12-20T07:18:53;2.78;;;2.55;;
17696;SDS011;8967;47.984;7.842;2022-12-20T07:21:20;3.63;;;2.80;;
17696;SDS011;8967;47.984;7.842;2022-12-20T07:23:47;4.65;;;2.80;;
17696;SDS011;8967;47.984;7.842;2022-12-20T07:26:14;6.90;;;3.15;;
17696;SDS011;8967;47.984;7.842;2022-12-20T07:28:42;4.55;;;2.70;;
17696;SDS011;8967;47.984;7.842;2022-12-20T07:31:09;5.85;;;2.70;;
17696;SDS011;8967;47.984;7.842;2022-12-20T07:33:38;6.57;;;2.78;;
17696;SDS011;8967;47.984;7.842;2022-12-20T07:36:07;4.28;;;2.28;;
17696;SDS011;8967;47.984;7.842;2022-12-20T07:38:37;4.15;;;2.90;;
17696;SDS011;8967;47.984;7.842;2022-12-20T07:41:05;4.53;;;2.50;;
17696;SDS011;8967;47.984;7.842;2022-12-20T07:43:33;5.60;;;3.10;;
17696;SDS011;8967;47.984;7.842;2022-12-20T07:46:00;5.28;;;3.17;;
17696;SDS011;8967;47.984;7.842;2022-12-20T07:48:28;5.70;;;3.08;;
17696;SDS011;8967;47.984;7.842;2022-12-20T07:50:56;3.30;;;2.90;;
17696;SDS011;8967;47.984;7.842;2022-12-20T07:53:28;4.20;;;2.85;;
17696;SDS011;8967;47.984;7.842;2022-12-20T07:55:58;4.22;;;2.35;;
17696;SDS011;8967;47.984;7.842;2022-12-20T07:58:28;4.40;;;2.70;;
17696;SDS011;8967;47.984;7.842;2022-12-20T08:00:56;5.80;;;2.38;;
17696;SDS011;8967;47.984;7.842;2022-12-20T08:03:24;4.50;;;3.10;;
17696;SDS011;8967;47.984;7.842;2022-12-20T08:05:57;7.85;;;3.30;;
17696;SDS011;8967;47.984;7.842;2022-12-20T08:08:29;5.93;;;3.45;;
17696;SDS011;8967;47.984;7.842;2022-12-20T08:10:58;5.07;;;3.50;;
17696;SDS011;8967;47.984;7.842;2022-12-20T08:13:25;6.55;;;3.92;;
17696;SDS011;8967;47.984;7.842;2022-12-20T08:15:52;7.43;;;3.35;;
17696;SDS011;8967;47.984;7.842;2022-12-20T08:18:19;6.05;;;3.72;;
17696;SDS011;8967;47.984;7.842;2022-12-20T08:20:46;4.65;;;3.05;;
17696;SDS011;8967;47.984;7.842;2022-12-20T08:23:13;3.80;;;2.70;;
17696;SDS011;8967;47.984;7.842;2022-12-20T08:25:41;4.18;;;2.65;;
17696;SDS011;8967;47.984;7.842;2022-12-20T08:28:08;4.95;;;3.13;;
17696;SDS011;8967;47.984;7.842;2022-12-20T08:30:35;5.90;;;2.72;;
17696;SDS011;8967;47.984;7.842;2022-12-20T08:33:03;5.93;;;2.42;;
17696;SDS011;8967;47.984;7.842;2022-12-20T08:35:30;4.20;;;2.75;;
17696;SDS011;8967;47.984;7.842;2022-12-20T08:37:57;6.95;;;3.45;;
17696;SDS011;8967;47.984;7.842;2022-12-20T08:40:24;3.88;;;3.03;;
17696;SDS011;8967;47.984;7.842;2022-12-20T08:42:53;6.20;;;2.78;;
17696;SDS011;8967;47.984;7.842;2022-12-20T08:45:20;4.55;;;3.10;;
17696;SDS011;8967;47.984;7.842;2022-12-20T08:47:46;7.10;;;3.42;;
17696;SDS011;8967;47.984;7.842;2022-12-20T08:50:13;5.10;;;3.10;;
17696;SDS011;8967;47.984;7.842;2022-12-20T08:52:43;7.50;;;3.22;;
17696;SDS011;8967;47.984;7.842;2022-12-20T08:55:10;4.75;;;2.58;;
17696;SDS011;8967;47.984;7.842;2022-12-20T08:57:37;5.30;;;2.97;;
17696;SDS011;8967;47.984;7.842;2022-12-20T09:00:06;3.40;;;2.75;;
17696;SDS011;8967;47.984;7.842;2022-12-20T09:02:33;6.30;;;3.33;;
17696;SDS011;8967;47.984;7.842;2022-12-20T09:05:02;5.45;;;2.63;;
17696;SDS011;8967;47.984;7.842;2022-12-20T09:07:29;5.78;;;3.13;;
17696;SDS011;8967;47.984;7.842;2022-12-20T09:09:56;6.82;;;3.38;;
17696;SDS011;8967;47.984;7.842;2022-12-20T09:12:23;7.00;;;3.33;;
17696;SDS011;8967;47.984;7.842;2022-12-20T09:14:49;6.07;;;3.20;;
17696;SDS011;8967;47.984;7.842;2022-12-20T09:17:18;6.85;;;3.30;;
17696;SDS011;8967;47.984;7.842;2022-12-20T09:19:45;4.72;;;2.72;;
17696;SDS011;8967;47.984;7.842;2022-12-20T09:22:12;6.47;;;3.05;;
17696;SDS011;8967;47.984;7.842;2022-12-20T09:24:41;6.07;;;3.75;;
17696;SDS011;8967;47.984;7.842;2022-12-20T09:27:08;8.43;;;5.10;;
17696;SDS011;8967;47.984;7.842;2022-12-20T09:29:35;5.63;;;4.22;;
17696;SDS011;8967;47.984;7.842;2022-12-20T09:32:02;6.88;;;4.28;;
17696;SDS011;8967;47.984;7.842;2022-12-20T09:34:30;6.20;;;4.03;;
17696;SDS011;8967;47.984;7.842;2022-12-20T09:36:59;6.63;;;4.03;;
17696;SDS011;8967;47.984;7.842;2022-12-20T09:39:27;3.95;;;3.17;;
17696;SDS011;8967;47.984;7.842;2022-12-20T09:41:54;4.07;;;3.00;;
17696;SDS011;8967;47.984;7.842;2022-12-20T09:44:23;3.78;;;2.80;;
17696;SDS011;8967;47.984;7.842;2022-12-20T09:46:54;4.47;;;3.50;;
17696;SDS011;8967;47.984;7.842;2022-12-20T09:49:24;6.55;;;3.65;;
17696;SDS011;8967;47.984;7.842;2022-12-20T09:52:00;6.82;;;4.20;;
17696;SDS011;8967;47.984;7.842;2022-12-20T09:54:45;8.13;;;4.32;;
17696;SDS011;8967;47.984;7.842;2022-12-20T09:57:26;7.75;;;4.00;;
17696;SDS011;8967;47.984;7.842;2022-12-20T10:00:02;10.15;;;4.18;;
17696;SDS011;8967;47.984;7.842;2022-12-20T10:02:37;4.38;;;3.42;;
17696;SDS011;8967;47.984;7.842;2022-12-20T10:05:04;7.03;;;3.80;;
17696;SDS011;8967;47.984;7.842;2022-12-20T10:07:40;7.15;;;4.03;;
17696;SDS011;8967;47.984;7.842;2022-12-20T10:10:21;4.72;;;3.13;;
17696;SDS011;8967;47.984;7.842;2022-12-20T10:13:12;7.75;;;3.83;;
17696;SDS011;8967;47.984;7.842;2022-12-20T10:15:49;6.85;;;4.07;;
17696;SDS011;8967;47.984;7.842;2022-12-20T10:18:23;7.13;;;3.65;;
17696;SDS011;8967;47.984;7.842;2022-12-20T10:21:03;6.18;;;4.07;;
17696;SDS011;8967;47.984;7.842;2022-12-20T10:23:41;5.47;;;3.55;;
17696;SDS011;8967;47.984;7.842;2022-12-20T10:26:16;6.68;;;4.07;;
17696;SDS011;8967;47.984;7.842;2022-12-20T10:28:43;5.45;;;3.47;;
17696;SDS011;8967;47.984;7.842;2022-12-20T10:31:13;5.50;;;3.80;;
17696;SDS011;8967;47.984;7.842;2022-12-20T10:33:44;7.80;;;4.53;;
17696;SDS011;8967;47.984;7.842;2022-12-20T10:36:22;6.63;;;4.07;;
17696;SDS011;8967;47.984;7.842;2022-12-20T10:38:53;5.18;;;4.10;;
17696;SDS011;8967;47.984;7.842;2022-12-20T10:41:22;5.40;;;3.65;;
17696;SDS011;8967;47.984;7.842;2022-12-20T10:43:51;5.43;;;4.00;;
17696;SDS011;8967;47.984;7.842;2022-12-20T10:46:21;5.32;;;3.33;;
17696;SDS011;8967;47.984;7.842;2022-12-20T10:48:49;8.60;;;3.72;;
17696;SDS011;8967;47.984;7.842;2022-12-20T10:51:17;5.85;;;4.10;;
17696;SDS011;8967;47.984;7.842;2022-12-20T10:53:49;5.20;;;3.47;;
17696;SDS011;8967;47.984;7.842;2022-12-20T10:56:20;5.07;;;3.60;;
17696;SDS011;8967;47.984;7.842;2022-12-20T10:58:51;8.23;;;4.85;;
17696;SDS011;8967;47.984;7.842;2022-12-20T11:01:21;8.02;;;4.85;;
17696;SDS011;8967;47.984;7.842;2022-12-20T11:03:52;7.55;;;4.45;;
17696;SDS011;8967;47.984;7.842;2022-12-20T11:06:21;6.85;;;4.30;;
17696;SDS011;8967;47.984;7.842;2022-12-20T11:08:49;6.22;;;4.53;;
17696;SDS011;8967;47.984;7.842;2022-12-20T11:11:17;7.25;;;4.53;;
17696;SDS011;8967;47.984;7.842;2022-12-20T11:13:48;7.78;;;4.40;;
17696;SDS011;8967;47.984;7.842;2022-12-20T11:16:27;6.97;;;5.50;;
17696;SDS011;8967;47.984;7.842;2022-12-20T11:19:15;6.55;;;4.95;;
17696;SDS011;8967;47.984;7.842;2022-12-20T11:22:03;7.53;;;4.47;;
17696;SDS011;8967;47.984;7.842;2022-12-20T11:24:38;8.45;;;4.80;;
17696;SDS011;8967;47.984;7.842;2022-12-20T11:27:18;8.68;;;5.00;;
17696;SDS011;8967;47.984;7.842;2022-12-20T11:30:04;7.32;;;4.72;;
17696;SDS011;8967;47.984;7.842;2022-12-20T11:35:41;7.63;;;5.15;;
17696;SDS011;8967;47.984;7.842;2022-12-20T11:38:17;7.55;;;4.60;;
17696;SDS011;8967;47.984;7.842;2022-12-20T11:41:01;7.00;;;4.50;;
17696;SDS011;8967;47.984;7.842;2022-12-20T11:43:43;9.80;;;4.78;;
17696;SDS011;8967;47.984;7.842;2022-12-20T11:46:24;6.05;;;4.10;;
17696;SDS011;8967;47.984;7.842;2022-12-20T11:49:09;7.43;;;4.55;;
17696;SDS011;8967;47.984;7.842;2022-12-20T11:51:51;8.32;;;5.00;;
17696;SDS011;8967;47.984;7.842;2022-12-20T11:54:29;6.50;;;4.63;;
17696;SDS011;8967;47.984;7.842;2022-12-20T11:57:03;7.18;;;4.70;;
17696;SDS011;8967;47.984;7.842;2022-12-20T11:59:39;7.60;;;4.78;;
17696;SDS011;8967;47.984;7.842;2022-12-20T12:02:10;8.25;;;4.85;;
17696;SDS011;8967;47.984;7.842;2022-12-20T12:04:40;6.20;;;4.10;;
17696;SDS011;8967;47.984;7.842;2022-12-20T12:07:12;8.20;;;4.90;;
17696;SDS011;8967;47.984;7.842;2022-12-20T12:09:46;8.88;;;5.22;;
17696;SDS011;8967;47.984;7.842;2022-12-20T12:12:22;9.73;;;5.15;;
17696;SDS011;8967;47.984;7.842;2022-12-20T12:14:57;11.00;;;5.50;;
17696;SDS011;8967;47.984;7.842;2022-12-20T12:17:30;11.43;;;5.30;;
17696;SDS011;8967;47.984;7.842;2022-12-20T12:20:24;10.77;;;5.47;;
17696;SDS011;8967;47.984;7.842;2022-12-20T12:23:00;11.35;;;5.25;;
17696;SDS011;8967;47.984;7.842;2022-12-20T12:25:31;7.55;;;4.75;;
17696;SDS011;8967;47.984;7.842;2022-12-20T12:27:58;9.95;;;5.55;;
17696;SDS011;8967;47.984;7.842;2022-12-20T12:30:27;9.65;;;4.53;;
17696;SDS011;8967;47.984;7.842;2022-12-20T12:33:04;8.65;;;4.90;;
17696;SDS011;8967;47.984;7.842;2022-12-20T12:35:46;9.23;;;4.95;;
17696;SDS011;8967;47.984;7.842;2022-12-20T12:38:39;8.05;;;4.68;;
17696;SDS011;8967;47.984;7.842;2022-12-20T12:44:38;7.38;;;4.40;;
17696;SDS011;8967;47.984;7.842;2022-12-20T12:47:12;6.65;;;3.90;;
17696;SDS011;8967;47.984;7.842;2022-12-20T12:49:42;5.90;;;4.28;;
17696;SDS011;8967;47.984;7.842;2022-12-20T12:52:25;4.93;;;3.63;;
17696;SDS011;8967;47.984;7.842;2022-12-20T12:54:55;6.07;;;3.70;;
17696;SDS011;8967;47.984;7.842;2022-12-20T12:57:22;5.80;;;3.72;;
17696;SDS011;8967;47.984;7.842;2022-12-20T12:59:49;7.57;;;4.20;;
17696;SDS011;8967;47.984;7.842;2022-12-20T13:02:33;8.10;;;4.35;;
17696;SDS011;8967;47.984;7.842;2022-12-20T13:08:08;6.82;;;3.90;;
17696;SDS011;8967;47.984;7.842;2022-12-20T13:10:58;8.88;;;3.88;;
17696;SDS011;8967;47.984;7.842;2022-12-20T13:13:26;4.60;;;3.40;;
17696;SDS011;8967;47.984;7.842;2022-12-20T13:16:11;7.90;;;3.55;;
17696;SDS011;8967;47.984;7.842;2022-12-20T13:18:57;3.88;;;3.22;;
17696;SDS011;8967;47.984;7.842;2022-12-20T13:21:38;4.72;;;2.92;;
17696;SDS011;8967;47.984;7.842;2022-12-20T13:27:25;4.55;;;3.17;;
17696;SDS011;8967;47.984;7.842;2022-12-20T13:32:57;6.40;;;3.40;;
17696;SDS011;8967;47.984;7.842;2022-12-20T13:35:56;8.38;;;3.85;;
17696;SDS011;8967;47.984;7.842;2022-12-20T13:38:54;8.80;;;4.32;;
17696;SDS011;8967;47.984;7.842;2022-12-20T13:41:30;7.32;;;4.13;;
17696;SDS011;8967;47.984;7.842;2022-12-20T13:47:00;8.25;;;4.40;;
17696;SDS011;8967;47.984;7.842;2022-12-20T13:49:43;7.80;;;3.97;;
17696;SDS011;8967;47.984;7.842;2022-12-20T13:52:18;8.02;;;4.43;;
17696;SDS011;8967;47.984;7.842;2022-12-20T13:54:52;7.60;;;3.78;;
17696;SDS011;8967;47.984;7.842;2022-12-20T13:57:26;6.90;;;3.70;;
17696;SDS011;8967;47.984;7.842;2022-12-20T13:59:56;4.05;;;3.17;;
17696;SDS011;8967;47.984;7.842;2022-12-20T14:02:28;6.25;;;3.45;;
17696;SDS011;8967;47.984;7.842;2022-12-20T14:04:59;5.07;;;4.13;;
17696;SDS011;8967;47.984;7.842;2022-12-20T14:07:30;7.68;;;3.90;;
17696;SDS011;8967;47.984;7.842;2022-12-20T14:09:58;5.45;;;3.53;;
17696;SDS011;8967;47.984;7.842;2022-12-20T14:12:27;6.18;;;3.83;;
17696;SDS011;8967;47.984;7.842;2022-12-20T14:14:55;5.75;;;3.17;;
17696;SDS011;8967;47.984;7.842;2022-12-20T14:17:23;4.68;;;3.20;;
17696;SDS011;8967;47.984;7.842;2022-12-20T14:20:05;4.95;;;3.22;;
17696;SDS011;8967;47.984;7.842;2022-12-20T14:22:41;6.38;;;3.20;;
17696;SDS011;8967;47.984;7.842;2022-12-20T14:25:16;4.22;;;3.08;;
17696;SDS011;8967;47.984;7.842;2022-12-20T14:27:51;4.18;;;2.95;;
17696;SDS011;8967;47.984;7.842;2022-12-20T14:30:29;6.20;;;3.53;;
17696;SDS011;8967;47.984;7.842;2022-12-20T14:32:58;9.90;;;6.00;;
17696;SDS011;8967;47.984;7.842;2022-12-20T14:35:27;7.55;;;5.15;;
17696;SDS011;8967;47.984;7.842;2022-12-20T14:37:57;8.07;;;4.25;;
17696;SDS011;8967;47.984;7.842;2022-12-20T14:40:26;7.28;;;4.97;;
17696;SDS011;8967;47.984;7.842;2022-12-20T14:42:54;12.32;;;8.45;;
17696;SDS011;8967;47.984;7.842;2022-12-20T14:45:23;23.00;;;12.20;;
17696;SDS011;8967;47.984;7.842;2022-12-20T14:47:53;19.20;;;11.50;;
17696;SDS011;8967;47.984;7.842;2022-12-20T14:50:25;14.30;;;10.50;;
17696;SDS011;8967;47.984;7.842;2022-12-20T14:52:56;18.38;;;9.88;;
17696;SDS011;8967;47.984;7.842;2022-12-20T14:55:25;15.57;;;7.50;;
17696;SDS011;8967;47.984;7.842;2022-12-20T14:57:57;15.02;;;8.32;;
17696;SDS011;8967;47.984;7.842;2022-12-20T15:00:25;19.25;;;10.98;;
17696;SDS011;8967;47.984;7.842;2022-12-20T15:02:58;29.10;;;15.18;;
17696;SDS011;8967;47.984;7.842;2022-12-20T15:05:35;22.20;;;12.15;;
17696;SDS011;8967;47.984;7.842;2022-12-20T15:08:14;24.10;;;10.65;;
17696;SDS011;8967;47.984;7.842;2022-12-20T15:10:48;15.50;;;8.40;;
17696;SDS011;8967;47.984;7.842;2022-12-20T15:13:21;10.57;;;5.78;;
17696;SDS011;8967;47.984;7.842;2022-12-20T15:15:51;9.55;;;5.25;;
17696;SDS011;8967;47.984;7.842;2022-12-20T15:18:18;5.80;;;3.88;;
17696;SDS011;8967;47.984;7.842;2022-12-20T15:20:48;8.60;;;4.57;;
17696;SDS011;8967;47.984;7.842;2022-12-20T15:23:24;4.55;;;3.20;;
17696;SDS011;8967;47.984;7.842;2022-12-20T15:25:51;4.32;;;3.10;;
17696;SDS011;8967;47.984;7.842;2022-12-20T15:28:21;4.88;;;3.10;;
17696;SDS011;8967;47.984;7.842;2022-12-20T15:30:50;3.78;;;3.03;;
17696;SDS011;8967;47.984;7.842;2022-12-20T15:33:18;4.45;;;2.60;;
17696;SDS011;8967;47.984;7.842;2022-12-20T15:35:47;5.65;;;3.13;;
17696;SDS011;8967;47.984;7.842;2022-12-20T15:38:18;5.47;;;3.22;;
17696;SDS011;8967;47.984;7.842;2022-12-20T15:40:53;4.22;;;2.55;;
17696;SDS011;8967;47.984;7.842;2022-12-20T15:43:38;4.18;;;2.78;;
17696;SDS011;8967;47.984;7.842;2022-12-20T15:46:05;3.65;;;2.63;;